createdAt,value
2023-01-02T00:01:13.531Z,3.42
2023-01-02T00:03:41.298Z,3.03
2023-01-02T00:06:08.760Z,3.10
2023-01-02T00:08:36.260Z,3.25
2023-01-02T00:11:03.523Z,4.60
2023-01-02T00:13:30.830Z,3.40
2023-01-02T00:15:58.627Z,3.42
2023-01-02T00:18:25.916Z,3.22
2023-01-02T00:20:54.612Z,3.58
2023-01-02T00:23:21.958Z,3.10
2023-01-02T00:25:54.063Z,3.40
2023-01-02T00:28:21.757Z,3.63
2023-01-02T00:30:50.126Z,3.78
2023-01-02T00:33:17.373Z,3.17
2023-01-02T00:35:44.798Z,5.75
2023-01-02T00:38:19.737Z,5.82
2023-01-02T00:40:47.140Z,5.68
2023-01-02T00:43:14.758Z,6.90
2023-01-02T00:45:43.734Z,6.32
2023-01-02T00:48:10.980Z,5.50
2023-01-02T00:50:38.706Z,4.72
2023-01-02T00:53:06.420Z,4.53
2023-01-02T00:55:33.683Z,4.53
2023-01-02T00:58:01.072Z,4.20
2023-01-02T01:00:31.514Z,3.40
2023-01-02T01:02:59.344Z,3.88
2023-01-02T01:05:28.396Z,4.05
2023-01-02T01:07:57.248Z,3.53
2023-01-02T01:10:26.638Z,3.53
2023-01-02T01:12:54.124Z,3.65
2023-01-02T01:15:21.519Z,2.97
2023-01-02T01:17:49.259Z,4.63
2023-01-02T01:20:16.750Z,4.03
2023-01-02T01:22:44.292Z,4.15
2023-01-02T01:25:12.180Z,3.67
2023-01-02T01:27:39.650Z,3.70
2023-01-02T01:30:08.361Z,3.10
2023-01-02T01:32:35.627Z,3.10
2023-01-02T01:35:05.484Z,3.42
2023-01-02T01:37:33.237Z,5.57
2023-01-02T01:40:01.572Z,6.78
2023-01-02T01:42:35.842Z,7.75
2023-01-02T01:45:04.086Z,7.63
2023-01-02T01:47:48.019Z,8.88
2023-01-02T01:50:36.245Z,20.55
2023-01-02T01:53:07.255Z,19.65
2023-01-02T01:55:39.871Z,18.02
2023-01-02T01:58:14.934Z,14.93
2023-01-02T02:00:43.518Z,6.55
2023-01-02T02:03:19.643Z,5.35
2023-01-02T02:05:48.738Z,4.50
2023-01-02T02:08:26.580Z,4.80
2023-01-02T02:10:56.226Z,4.80
2023-01-02T02:13:24.085Z,3.90
2023-01-02T02:16:12.419Z,5.03
2023-01-02T02:18:55.120Z,6.07
2023-01-02T02:21:44.136Z,5.55
2023-01-02T02:24:30.777Z,6.63
2023-01-02T02:27:19.797Z,5.72
2023-01-02T02:30:16.433Z,10.85
2023-01-02T02:32:43.677Z,15.13
2023-01-02T02:35:17.532Z,12.13
2023-01-02T02:38:05.326Z,13.25
2023-01-02T02:40:45.823Z,16.85
2023-01-02T02:43:41.105Z,14.65
2023-01-02T02:46:31.506Z,14.23
2023-01-02T02:49:14.342Z,13.73
2023-01-02T02:52:00.737Z,13.93
2023-01-02T02:54:38.215Z,14.23
2023-01-02T02:57:07.841Z,13.75
2023-01-02T02:59:37.342Z,12.93
2023-01-02T03:02:07.143Z,12.60
2023-01-02T03:04:34.773Z,11.35
2023-01-02T03:07:45.742Z,11.02
2023-01-02T03:10:33.059Z,10.65
2023-01-02T03:13:41.839Z,9.80
2023-01-02T03:16:28.753Z,8.00
2023-01-02T03:19:02.923Z,7.45
2023-01-02T03:21:36.529Z,5.40
2023-01-02T03:24:10.668Z,4.22
2023-01-02T03:26:41.993Z,4.35
2023-01-02T03:29:15.470Z,4.10
2023-01-02T03:31:50.011Z,3.13
2023-01-02T03:34:25.971Z,3.42
2023-01-02T03:37:06.401Z,3.00
2023-01-02T03:39:38.008Z,2.55
2023-01-02T03:42:10.605Z,2.47
2023-01-02T03:44:47.599Z,3.08
2023-01-02T03:47:40.989Z,3.50
2023-01-02T03:50:22.814Z,3.13
2023-01-02T03:52:50.443Z,2.28
2023-01-02T03:55:18.426Z,2.83
2023-01-02T03:58:10.056Z,2.53
2023-01-02T04:01:04.045Z,2.50
2023-01-02T04:03:38.868Z,2.15
2023-01-02T04:06:15.488Z,2.10
2023-01-02T04:08:56.977Z,2.53
2023-01-02T04:11:30.949Z,2.55
2023-01-02T04:14:03.956Z,2.00
2023-01-02T04:16:36.100Z,2.50
2023-01-02T04:19:15.048Z,2.47
2023-01-02T04:21:44.117Z,2.70
2023-01-02T04:24:33.330Z,2.55
2023-01-02T04:27:26.029Z,2.90
2023-01-02T04:29:53.952Z,2.08
2023-01-02T04:32:29.491Z,2.17
2023-01-02T04:34:58.348Z,2.20
2023-01-02T04:37:37.062Z,2.10
2023-01-02T04:40:30.122Z,2.22
2023-01-02T04:42:57.743Z,2.13
2023-01-02T04:45:24.967Z,2.05
2023-01-02T04:47:52.230Z,1.90
2023-01-02T04:50:20.300Z,2.17
2023-01-02T04:52:47.744Z,1.92
2023-01-02T04:55:15.016Z,1.80
2023-01-02T04:57:42.509Z,1.77
2023-01-02T05:00:10.343Z,2.33
2023-01-02T05:02:39.320Z,2.10
2023-01-02T05:05:09.125Z,3.05
2023-01-02T05:07:37.392Z,2.10
2023-01-02T05:10:06.502Z,2.53
2023-01-02T05:12:35.722Z,1.55
2023-01-02T05:15:04.549Z,0.80
2023-01-02T05:17:40.165Z,0.90
2023-01-02T05:20:10.908Z,0.60
2023-01-02T05:22:58.228Z,0.52
2023-01-02T05:25:26.854Z,0.43
2023-01-02T05:27:55.167Z,0.75
2023-01-02T05:30:23.136Z,0.70
2023-01-02T05:32:50.655Z,0.52
2023-01-02T05:35:19.753Z,0.50
2023-01-02T05:37:47.200Z,0.40
2023-01-02T05:40:14.596Z,0.77
2023-01-02T05:42:42.311Z,0.55
2023-01-02T05:45:09.904Z,0.50
2023-01-02T05:47:38.995Z,0.50
2023-01-02T05:50:07.143Z,0.70
2023-01-02T05:52:38.747Z,0.30
2023-01-02T05:55:09.192Z,0.20
2023-01-02T05:57:36.876Z,0.00
2023-01-02T06:00:05.041Z,0.50
2023-01-02T06:02:43.147Z,0.10
2023-01-02T06:05:15.307Z,0.50
2023-01-02T06:07:42.582Z,0.25
2023-01-02T06:10:10.356Z,0.20
2023-01-02T06:12:37.654Z,0.30
2023-01-02T06:15:05.997Z,0.20
2023-01-02T06:17:34.464Z,0.20
2023-01-02T06:20:01.912Z,0.20
2023-01-02T06:22:29.831Z,0.30
2023-01-02T06:24:57.702Z,0.20
2023-01-02T06:27:25.772Z,0.28
2023-01-02T06:29:53.264Z,0.50
2023-01-02T06:32:20.689Z,0.30
2023-01-02T06:34:48.190Z,0.30
2023-01-02T06:37:15.858Z,0.45
2023-01-02T06:39:43.139Z,0.30
2023-01-02T06:42:10.661Z,0.40
2023-01-02T06:44:38.953Z,0.45
2023-01-02T06:47:07.074Z,0.50
2023-01-02T06:49:34.979Z,0.50
2023-01-02T06:52:03.068Z,1.00
2023-01-02T06:54:30.824Z,0.63
2023-01-02T06:56:58.055Z,0.70
2023-01-02T06:59:28.305Z,0.75
2023-01-02T07:01:55.703Z,1.23
2023-01-02T07:04:23.764Z,0.95
2023-01-02T07:06:50.991Z,0.60
2023-01-02T07:09:18.821Z,0.68
2023-01-02T07:11:46.071Z,0.70
2023-01-02T07:14:13.395Z,0.50
2023-01-02T07:16:41.228Z,0.77
2023-01-02T07:19:10.884Z,2.88
2023-01-02T07:21:38.274Z,3.85
2023-01-02T07:24:06.333Z,2.25
2023-01-02T07:26:34.004Z,2.28
2023-01-02T07:29:02.009Z,1.90
2023-01-02T07:31:33.389Z,1.50
2023-01-02T07:34:00.961Z,1.20
2023-01-02T07:36:28.595Z,0.60
2023-01-02T07:38:57.744Z,0.60
2023-01-02T07:41:26.633Z,0.77
2023-01-02T07:43:58.375Z,0.77
2023-01-02T07:46:26.312Z,1.48
2023-01-02T07:48:54.191Z,2.63
2023-01-02T07:51:27.008Z,2.20
2023-01-02T07:53:58.303Z,2.90
2023-01-02T07:56:27.159Z,2.60
2023-01-02T07:58:55.131Z,2.42
2023-01-02T08:01:22.988Z,2.80
2023-01-02T08:03:51.260Z,2.72
2023-01-02T08:06:19.786Z,4.43
2023-01-02T08:08:48.046Z,3.53
2023-01-02T08:11:18.601Z,2.90
2023-01-02T08:13:46.986Z,3.63
2023-01-02T08:16:17.318Z,5.13
2023-01-02T08:18:45.565Z,3.30
2023-01-02T08:21:13.914Z,1.50
2023-01-02T08:23:41.335Z,0.85
2023-01-02T08:26:10.907Z,0.75
2023-01-02T08:28:39.581Z,0.45
2023-01-02T08:31:12.959Z,1.10
2023-01-02T08:33:40.720Z,2.33
2023-01-02T08:36:08.866Z,1.60
2023-01-02T08:38:36.984Z,1.42
2023-01-02T08:41:05.557Z,0.90
2023-01-02T08:43:36.782Z,0.50
2023-01-02T08:46:08.280Z,0.88
2023-01-02T08:48:36.684Z,0.75
2023-01-02T08:51:05.336Z,2.03
2023-01-02T08:53:35.215Z,1.92
2023-01-02T08:56:36.367Z,1.20
2023-01-02T08:59:12.987Z,6.20
2023-01-02T09:01:41.748Z,8.02
2023-01-02T09:04:12.808Z,5.32
2023-01-02T09:06:42.968Z,11.82
2023-01-02T09:09:13.091Z,15.23
2023-01-02T09:11:49.501Z,13.98
2023-01-02T09:14:19.285Z,11.63
2023-01-02T09:16:47.561Z,7.60
2023-01-02T09:19:15.311Z,6.10
2023-01-02T09:21:43.139Z,1.75
2023-01-02T09:24:11.533Z,1.20
2023-01-02T09:26:42.080Z,1.45
2023-01-02T09:29:13.584Z,1.20
2023-01-02T09:31:42.267Z,1.23
2023-01-02T09:34:09.848Z,1.20
2023-01-02T09:36:41.530Z,0.95
2023-01-02T09:39:10.063Z,0.95
2023-01-02T09:41:58.449Z,0.85
2023-01-02T09:44:34.736Z,0.90
2023-01-02T09:47:11.673Z,0.90
2023-01-02T09:49:49.960Z,1.10
2023-01-02T09:52:31.061Z,1.27
2023-01-02T09:54:58.680Z,1.02
2023-01-02T09:57:30.231Z,0.82
2023-01-02T09:59:57.733Z,1.20
2023-01-02T10:03:04.174Z,1.70
2023-01-02T10:06:05.324Z,1.00
2023-01-02T10:08:46.890Z,1.20
2023-01-02T10:11:56.960Z,1.20
2023-01-02T10:14:44.647Z,1.73
2023-01-02T10:17:18.715Z,1.50
2023-01-02T10:19:58.037Z,1.00
2023-01-02T10:22:51.764Z,1.55
2023-01-02T10:25:25.463Z,1.20
2023-01-02T10:28:15.382Z,1.30
2023-01-02T10:31:06.764Z,1.77
2023-01-02T10:33:47.494Z,1.15
2023-01-02T10:36:25.344Z,1.20
2023-01-02T10:38:54.590Z,1.85
2023-01-02T10:41:22.205Z,1.40
2023-01-02T10:43:59.013Z,1.02
2023-01-02T10:46:36.215Z,1.30
2023-01-02T10:49:11.264Z,1.33
2023-01-02T10:51:46.313Z,1.08
2023-01-02T10:54:13.708Z,1.10
2023-01-02T10:56:41.995Z,1.00
2023-01-02T10:59:29.697Z,1.00
2023-01-02T11:02:00.676Z,1.00
2023-01-02T11:04:31.109Z,1.10
2023-01-02T11:07:04.462Z,1.20
2023-01-02T11:09:36.353Z,1.25
2023-01-02T11:12:14.759Z,1.38
2023-01-02T11:14:42.127Z,1.50
2023-01-02T11:17:27.184Z,0.90
2023-01-02T11:19:57.434Z,0.98
2023-01-02T11:22:36.005Z,1.10
2023-01-02T11:25:06.544Z,2.20
2023-01-02T11:27:42.389Z,1.30
2023-01-02T11:30:46.719Z,1.05
2023-01-02T11:33:14.639Z,1.88
2023-01-02T11:35:54.827Z,1.20
2023-01-02T11:38:29.540Z,1.90
2023-01-02T11:41:49.544Z,1.70
2023-01-02T11:44:23.040Z,1.42
2023-01-02T11:49:40.711Z,1.63
2023-01-02T11:52:16.036Z,2.35
2023-01-02T11:55:02.628Z,3.22
2023-01-02T11:57:49.977Z,12.02
2023-01-02T12:00:20.634Z,4.43
2023-01-02T12:02:51.747Z,7.75
2023-01-02T12:05:36.110Z,8.98
2023-01-02T12:08:17.210Z,4.32
2023-01-02T12:11:09.325Z,3.35
2023-01-02T12:14:09.454Z,4.00
2023-01-02T12:17:06.720Z,3.30
2023-01-02T12:19:42.360Z,2.85
2023-01-02T12:22:10.290Z,3.63
2023-01-02T12:25:17.058Z,3.30
2023-01-02T12:28:03.417Z,1.35
2023-01-02T12:30:35.737Z,3.67
2023-01-02T12:33:40.409Z,0.60
2023-01-02T12:36:26.990Z,0.80
2023-01-02T12:38:54.728Z,0.52
2023-01-02T12:41:29.693Z,0.93
2023-01-02T12:44:48.165Z,0.60
2023-01-02T12:47:33.914Z,0.60
2023-01-02T12:50:22.542Z,0.60
2023-01-02T12:53:09.125Z,0.65
2023-01-02T12:55:53.492Z,0.63
2023-01-02T12:58:35.488Z,0.80
2023-01-02T13:01:14.785Z,0.80
2023-01-02T13:03:45.370Z,2.10
2023-01-02T13:06:47.228Z,2.60
2023-01-02T13:09:26.077Z,3.20
2023-01-02T13:12:11.784Z,2.88
2023-01-02T13:14:55.362Z,2.08
2023-01-02T13:17:58.899Z,1.65
2023-01-02T13:20:32.538Z,1.77
2023-01-02T13:23:40.397Z,3.95
2023-01-02T13:26:21.448Z,3.15
2023-01-02T13:29:09.059Z,1.92
2023-01-02T13:31:47.467Z,1.20
2023-01-02T13:34:24.822Z,0.90
2023-01-02T13:37:07.826Z,0.93
2023-01-02T13:39:48.783Z,2.40
2023-01-02T13:42:50.431Z,2.80
2023-01-02T13:45:39.416Z,1.88
2023-01-02T13:48:42.016Z,3.28
2023-01-02T13:51:26.334Z,2.17
2023-01-02T13:53:58.380Z,2.47
2023-01-02T13:56:31.105Z,1.58
2023-01-02T13:59:03.347Z,1.40
2023-01-02T14:02:04.246Z,2.15
2023-01-02T14:04:39.970Z,1.52
2023-01-02T14:07:37.224Z,2.20
2023-01-02T14:10:20.574Z,2.05
2023-01-02T14:12:59.223Z,2.25
2023-01-02T14:15:34.382Z,1.00
2023-01-02T14:18:14.027Z,1.38
2023-01-02T14:20:46.967Z,1.98
2023-01-02T14:23:29.002Z,2.08
2023-01-02T14:25:57.818Z,1.92
2023-01-02T14:28:32.958Z,2.70
2023-01-02T14:31:15.569Z,2.47
2023-01-02T14:33:47.043Z,1.73
2023-01-02T14:36:26.108Z,1.60
2023-01-02T14:38:59.237Z,1.70
2023-01-02T14:42:10.029Z,2.35
2023-01-02T14:44:50.005Z,3.20
2023-01-02T14:47:24.665Z,1.55
2023-01-02T14:50:07.739Z,1.25
2023-01-02T14:52:42.251Z,1.33
2023-01-02T14:55:26.623Z,1.17
2023-01-02T14:57:58.343Z,1.98
2023-01-02T15:00:34.344Z,1.35
2023-01-02T15:03:23.434Z,6.20
2023-01-02T15:06:25.641Z,14.18
2023-01-02T15:08:57.828Z,14.00
2023-01-02T15:11:46.818Z,12.35
2023-01-02T15:14:23.872Z,9.85
2023-01-02T15:17:02.783Z,8.77
2023-01-02T15:19:33.935Z,7.15
2023-01-02T15:22:18.345Z,7.78
2023-01-02T15:24:51.361Z,4.85
2023-01-02T15:27:32.388Z,5.70
2023-01-02T15:30:02.708Z,4.30
2023-01-02T15:32:33.958Z,3.58
2023-01-02T15:35:14.828Z,2.35
2023-01-02T15:37:50.714Z,2.53
2023-01-02T15:43:32.427Z,1.98
2023-01-02T15:46:13.972Z,2.30
2023-01-02T15:48:48.793Z,2.60
2023-01-02T15:51:19.873Z,4.22
2023-01-02T15:54:11.012Z,4.57
2023-01-02T15:56:41.026Z,3.28
2023-01-02T15:59:37.562Z,3.08
2023-01-02T16:02:06.152Z,2.95
2023-01-02T16:04:35.430Z,3.15
2023-01-02T16:07:23.450Z,3.20
2023-01-02T16:09:56.916Z,3.78
2023-01-02T16:12:25.230Z,4.07
2023-01-02T16:14:57.457Z,4.20
2023-01-02T16:17:31.534Z,4.63
2023-01-02T16:20:12.006Z,3.78
2023-01-02T16:22:55.648Z,3.53
2023-01-02T16:28:35.057Z,2.65
2023-01-02T16:31:17.233Z,2.15
2023-01-02T16:33:48.831Z,2.00
2023-01-02T16:36:16.292Z,2.05
2023-01-02T16:38:56.398Z,1.80
2023-01-02T16:41:55.789Z,2.35
2023-01-02T16:44:25.788Z,2.63
2023-01-02T16:46:53.046Z,2.13
2023-01-02T16:49:22.793Z,1.92
2023-01-02T16:51:54.934Z,1.30
2023-01-02T16:54:22.736Z,1.45
2023-01-02T16:56:50.815Z,1.92
2023-01-02T16:59:19.335Z,1.10
2023-01-02T17:01:47.386Z,1.40
2023-01-02T17:04:16.164Z,1.00
2023-01-02T17:06:43.740Z,1.20
2023-01-02T17:09:11.193Z,1.30
2023-01-02T17:12:00.341Z,1.50
2023-01-02T17:14:29.756Z,1.60
2023-01-02T17:16:58.222Z,1.50
2023-01-02T17:19:26.051Z,1.38
2023-01-02T17:21:53.680Z,1.70
2023-01-02T17:24:21.281Z,1.75
2023-01-02T17:26:48.860Z,1.63
2023-01-02T17:29:18.886Z,2.55
2023-01-02T17:31:48.534Z,2.78
2023-01-02T17:34:16.208Z,3.08
2023-01-02T17:36:43.809Z,3.70
2023-01-02T17:39:11.445Z,2.95
2023-01-02T17:41:38.977Z,3.38
2023-01-02T17:44:06.465Z,5.75
2023-01-02T17:47:15.436Z,7.28
2023-01-02T17:49:21.917Z,7.25
2023-01-02T17:51:49.162Z,5.43
2023-01-02T17:54:16.978Z,5.53
2023-01-02T17:56:46.571Z,5.28
2023-01-02T17:59:14.558Z,5.63
2023-01-02T18:01:42.526Z,4.03
2023-01-02T18:04:10.624Z,3.20
2023-01-02T18:06:38.573Z,3.38
2023-01-02T18:09:06.384Z,3.35
2023-01-02T18:11:35.389Z,3.38
2023-01-02T18:14:03.793Z,3.75
2023-01-02T18:16:38.536Z,8.35
2023-01-02T18:19:18.822Z,9.85
2023-01-02T18:21:47.991Z,8.85
2023-01-02T18:24:36.538Z,7.15
2023-01-02T18:27:36.148Z,4.47
2023-01-02T18:30:14.443Z,6.60
2023-01-02T18:32:43.240Z,6.97
2023-01-02T18:35:46.667Z,6.45
2023-01-02T18:38:14.448Z,8.55
2023-01-02T18:40:41.904Z,8.45
2023-01-02T18:43:38.560Z,8.23
2023-01-02T18:46:15.146Z,8.75
2023-01-02T18:48:46.112Z,8.85
2023-01-02T18:51:20.712Z,7.43
2023-01-02T18:53:55.495Z,8.32
2023-01-02T18:56:26.407Z,9.82
2023-01-02T18:59:04.769Z,11.00
2023-01-02T19:01:36.169Z,11.88
2023-01-02T19:04:18.920Z,10.93
2023-01-02T19:06:52.973Z,8.90
2023-01-02T19:09:35.070Z,10.40
2023-01-02T19:12:41.399Z,11.52
2023-01-02T19:15:59.346Z,13.98
2023-01-02T19:18:34.051Z,14.82
2023-01-02T19:21:13.374Z,13.73
2023-01-02T19:23:55.739Z,15.50
2023-01-02T19:26:26.875Z,13.25
2023-01-02T19:29:04.307Z,14.15
2023-01-02T19:31:41.208Z,11.82
2023-01-02T19:34:45.599Z,9.23
2023-01-02T19:37:13.017Z,8.18
2023-01-02T19:39:48.749Z,8.43
2023-01-02T19:42:22.471Z,7.93
2023-01-02T19:44:59.619Z,11.35
2023-01-02T19:47:30.203Z,18.85
2023-01-02T19:49:58.522Z,38.20
2023-01-02T19:52:28.434Z,24.00
2023-01-02T19:54:58.997Z,16.63
2023-01-02T19:57:26.692Z,15.15
2023-01-02T19:59:59.788Z,21.58
2023-01-02T20:02:28.572Z,29.23
2023-01-02T20:04:56.391Z,34.65
2023-01-02T20:07:25.048Z,27.48
2023-01-02T20:09:53.607Z,15.73
2023-01-02T20:12:30.888Z,10.90
2023-01-02T20:15:03.844Z,7.38
2023-01-02T20:17:31.679Z,6.40
2023-01-02T20:19:59.342Z,6.22
2023-01-02T20:22:28.273Z,7.90
2023-01-02T20:24:57.609Z,10.25
2023-01-02T20:27:25.589Z,16.00
2023-01-02T20:29:55.630Z,14.88
2023-01-02T20:32:24.000Z,13.80
2023-01-02T20:34:52.782Z,10.27
2023-01-02T20:37:23.300Z,10.57
2023-01-02T20:39:55.031Z,10.95
2023-01-02T20:42:22.638Z,8.63
2023-01-02T20:44:52.394Z,9.00
2023-01-02T20:47:19.793Z,9.90
2023-01-02T20:49:47.088Z,10.50
2023-01-02T20:52:15.038Z,10.45
2023-01-02T20:54:42.757Z,10.80
2023-01-02T20:57:10.363Z,14.45
2023-01-02T20:59:37.843Z,16.67
2023-01-02T21:02:06.433Z,11.35
2023-01-02T21:04:37.213Z,8.68
2023-01-02T21:07:06.032Z,7.75
2023-01-02T21:09:33.869Z,6.97
2023-01-02T21:12:01.550Z,6.40
2023-01-02T21:14:37.574Z,6.50
2023-01-02T21:17:05.598Z,5.65
2023-01-02T21:19:33.178Z,6.03
2023-01-02T21:22:00.651Z,6.38
2023-01-02T21:24:27.928Z,6.25
2023-01-02T21:26:55.443Z,6.13
2023-01-02T21:29:22.600Z,7.95
2023-01-02T21:31:50.312Z,11.00
2023-01-02T21:34:18.123Z,7.90
2023-01-02T21:36:46.857Z,7.60
2023-01-02T21:39:14.447Z,7.97
2023-01-02T21:42:00.475Z,7.20
2023-01-02T21:44:28.431Z,6.40
2023-01-02T21:46:58.316Z,5.68
2023-01-02T21:49:28.788Z,5.80
2023-01-02T21:51:56.234Z,5.82
2023-01-02T21:54:25.475Z,5.80
2023-01-02T21:56:52.881Z,5.25
2023-01-02T21:59:21.474Z,5.28
2023-01-02T22:01:49.169Z,5.28
2023-01-02T22:04:16.638Z,4.68
2023-01-02T22:07:20.902Z,5.22
2023-01-02T22:09:31.284Z,5.35
2023-01-02T22:11:58.529Z,5.05
2023-01-02T22:14:36.813Z,5.43
2023-01-02T22:17:07.219Z,5.15
2023-01-02T22:19:35.606Z,6.72
2023-01-02T22:22:03.855Z,6.40
2023-01-02T22:24:31.465Z,4.75
2023-01-02T22:27:04.277Z,4.63
2023-01-02T22:30:09.548Z,4.50
2023-01-02T22:32:20.787Z,4.18
2023-01-02T22:34:48.001Z,4.72
2023-01-02T22:37:22.064Z,5.60
2023-01-02T22:39:50.348Z,6.07
2023-01-02T22:45:40.373Z,17.38
2023-01-02T22:48:15.887Z,17.80
2023-01-02T22:50:45.304Z,17.65
2023-01-02T22:53:23.777Z,12.60
2023-01-02T22:55:51.465Z,11.38
2023-01-02T22:58:19.969Z,9.43
2023-01-02T23:00:50.197Z,9.38
2023-01-02T23:03:17.662Z,9.52
2023-01-02T23:05:51.535Z,10.48
2023-01-02T23:08:19.140Z,11.50
2023-01-02T23:10:46.686Z,12.13
2023-01-02T23:13:14.029Z,13.05
2023-01-02T23:16:01.451Z,14.05
2023-01-02T23:18:54.551Z,12.82
2023-01-02T23:21:28.879Z,14.15
2023-01-02T23:23:56.832Z,14.23
2023-01-02T23:26:28.238Z,14.60
2023-01-02T23:29:06.426Z,16.58
2023-01-02T23:31:36.963Z,14.38
2023-01-02T23:34:04.368Z,13.98
2023-01-02T23:36:43.590Z,12.05
2023-01-02T23:39:16.386Z,11.30
2023-01-02T23:41:45.083Z,10.88
2023-01-02T23:44:13.521Z,10.13
2023-01-02T23:46:41.409Z,10.68
2023-01-02T23:49:10.116Z,10.25
2023-01-02T23:51:38.533Z,10.80
2023-01-02T23:54:06.363Z,11.18
2023-01-02T23:56:37.017Z,11.15
2023-01-02T23:59:07.353Z,12.38
